Meath Environmental Platform

Observations for Trim Patrick St

Time AQI Temp °C Hum % Pres Pa CO μg/m³ H₂S μg/m³ NO μg/m³ NO₂ μg/m³ O₃ μg/m³ SO₂ μg/m³ PM1 μg/m³ PM2.5 μg/m³ PM10 μg/m³
Saturday 1 August 2026
17:17 3 28.3 32 69,122 0 0 1.29 14.18 78.5 11.92 6.29 13.12 14.43
17:16 3 28.4 33 69,130 0 0 1.31 19.95 89.44 12.17 3.71 10.67 11.74
17:15 3 28.4 32 69,108 0 0 1.28 20.65 88.36 11.72 2.86 9.93 10.93
17:14 3 28.6 32 69,108 0 0 1.28 15.29 76.25 12.28 3.71 9.93 10.92
17:13 3 28.6 33 69,106 0 0 1.29 21.11 87.1 13.04 2.86 9.11 10.02
17:12 3 28.7 32 69,102 0 0 1.27 19.03 78.76 11.44 3.71 9.15 10.07
17:11 3 28.8 32 69,094 0 0 1.28 19.12 84.51 12.51 2.86 9.13 10.04
17:10 3 28.8 33 69,084 0 0 1.31 24.21 80.55 10.86 3.71 9.88 10.87
17:09 3 28.7 33 69,071 0 0 1.28 24.37 83.58 10.56 2 8.3 9.13
17:08 3 28.6 34 69,082 0 4.47 1.34 31.06 89.12 11.77 2.86 8.21 9.03
17:07 3 28.4 34 69,065 0 6.92 1.35 27.74 96.03 12.81 4.57 10.58 11.63
17:06 3 28.2 35 69,069 0 0 1.35 21.85 85.07 11.12 3.71 9.74 10.72
17:05 3 27.9 35 69,049 0 4.2 1.26 19.03 96.68 12.05 5.43 10.51 11.56
17:04 2 27.6 36 69,055 0 3.58 1.14 23.21 89.8 11.22 4.57 11.28 12.41
17:03 2 27.4 34 69,033 0 7.31 1.08 16.91 88.07 11.88 2.86 8.2 9.02
17:02 3 27.2 36 69,041 0 11.32 1.02 29.4 126.1 12.09 3.71 10.5 11.55
17:01 3 27 34 69,023 0 3.6 1.02 16.95 91.08 11.51 4.57 12.97 14.27
17:00 2 26.8 35 69,031 0 6.17 1.15 14.99 81.17 11.6 5.43 12.14 13.35
16:59 2 26.7 36 69,010 0 11.56 1.14 15.5 96.32 12.01 2.86 8.9 9.79
16:58 2 26.6 35 69,021 0 13.54 1.02 28.56 112.44 11.8 2 7.34 8.07